Time;durP1;ratioP1;P1;durP2;ratioP2;P2;SDS_P1;SDS_P2;PMS_P1;PMS_P2;Temp;Humidity;BMP_temperature;BMP_pressure;BME280_temperature;BME280_humidity;BME280_pressure;Samples;Min_cycle;Max_cycle;Signal;HPM_P1;HPM_P2
2022/06/05 00:01:51;;;;;;;1.00;0.88;;;;;;;;;;4564385;28;20043;-66
2022/06/05 00:04:39;;;;;;;0.82;0.80;;;;;;;;;;4564256;28;20040;-66
2022/06/05 00:07:01;;;;;;;1.02;0.93;;;;;;;;;;4561713;28;20683;-66
2022/06/05 00:09:18;;;;;;;1.27;0.80;;;;;;;;;;4562106;28;20071;-66
2022/06/05 00:11:38;;;;;;;0.95;0.90;;;;;;;;;;4569798;28;20108;-66
2022/06/05 00:13:52;;;;;;;0.88;0.80;;;;;;;;;;4563430;28;20055;-65
2022/06/05 00:16:04;;;;;;;0.88;0.88;;;;;;;;;;4564192;28;20040;-66
2022/06/05 00:18:14;;;;;;;1.10;1.00;;;;;;;;;;4561790;28;20045;-65
2022/06/05 00:20:25;;;;;;;2.13;0.82;;;;;;;;;;4562747;28;20036;-66
2022/06/05 00:22:37;;;;;;;1.00;0.90;;;;;;;;;;4569799;28;20024;-66
2022/06/05 00:24:48;;;;;;;0.80;0.80;;;;;;;;;;4562270;28;20024;-65
2022/06/05 00:27:18;;;;;;;0.80;0.80;;;;;;;;;;4548958;28;20606;-66
2022/06/05 00:29:54;;;;;;;0.80;0.80;;;;;;;;;;4564767;28;20477;-66
2022/06/05 00:32:12;;;;;;;0.90;0.90;;;;;;;;;;4562501;28;20048;-66
2022/06/05 00:34:22;;;;;;;0.80;0.80;;;;;;;;;;4561431;28;20052;-66
2022/06/05 00:36:49;;;;;;;1.05;0.90;;;;;;;;;;4561066;28;20115;-66
2022/06/05 00:39:15;;;;;;;0.70;0.70;;;;;;;;;;4555857;28;20032;-66
2022/06/05 00:41:30;;;;;;;0.80;0.80;;;;;;;;;;4562162;27;20102;-65
2022/06/05 00:43:41;;;;;;;0.60;0.60;;;;;;;;;;4563183;28;20024;-65
2022/06/05 00:45:53;;;;;;;0.80;0.80;;;;;;;;;;4561456;28;20806;-66
2022/06/05 00:48:03;;;;;;;0.80;0.80;;;;;;;;;;4561045;28;20045;-65
2022/06/05 00:50:17;;;;;;;1.40;0.80;;;;;;;;;;4561677;28;20460;-66
2022/06/05 00:52:31;;;;;;;0.77;0.77;;;;;;;;;;4545334;28;20182;-66
2022/06/05 00:54:41;;;;;;;1.20;0.95;;;;;;;;;;4552970;28;20113;-65
2022/06/05 00:56:52;;;;;;;0.70;0.70;;;;;;;;;;4562191;28;20141;-65
2022/06/05 00:59:02;;;;;;;0.98;0.88;;;;;;;;;;4563569;28;20034;-65
2022/06/05 01:01:13;;;;;;;0.70;0.70;;;;;;;;;;4562534;28;20044;-65
2022/06/05 01:03:24;;;;;;;0.82;0.77;;;;;;;;;;4562327;28;20044;-66
2022/06/05 01:05:34;;;;;;;1.13;0.85;;;;;;;;;;4559775;28;20889;-66
2022/06/05 01:07:46;;;;;;;0.70;0.70;;;;;;;;;;4555301;28;20129;-66
2022/06/05 01:09:56;;;;;;;0.70;0.70;;;;;;;;;;4564003;28;20134;-65
2022/06/05 01:12:10;;;;;;;0.80;0.80;;;;;;;;;;4561272;28;20520;-66
2022/06/05 01:14:23;;;;;;;0.93;0.70;;;;;;;;;;4564063;28;20036;-65
2022/06/05 01:16:43;;;;;;;0.70;0.70;;;;;;;;;;4564634;28;21263;-66
2022/06/05 01:19:01;;;;;;;1.02;0.63;;;;;;;;;;4562077;28;20041;-66
2022/06/05 01:21:19;;;;;;;0.80;0.80;;;;;;;;;;4561976;28;20611;-66
2022/06/05 01:23:58;;;;;;;1.20;0.90;;;;;;;;;;4563616;28;20757;-65
2022/06/05 01:26:28;;;;;;;0.80;0.80;;;;;;;;;;4560623;28;20721;-65
2022/06/05 01:28:43;;;;;;;0.60;0.60;;;;;;;;;;4555960;27;20036;-65
2022/06/05 01:31:05;;;;;;;0.70;0.70;;;;;;;;;;4560360;28;20135;-65
2022/06/05 01:33:24;;;;;;;0.85;0.85;;;;;;;;;;4570482;28;20039;-65
2022/06/05 01:35:57;;;;;;;0.70;0.60;;;;;;;;;;4563919;28;20114;-65
2022/06/05 01:38:13;;;;;;;1.25;0.60;;;;;;;;;;4562049;28;20058;-65
2022/06/05 01:40:48;;;;;;;0.70;0.70;;;;;;;;;;4561889;28;20125;-65
2022/06/05 01:43:04;;;;;;;0.80;0.80;;;;;;;;;;4563537;27;20119;-65
2022/06/05 01:45:26;;;;;;;1.05;0.80;;;;;;;;;;4563741;28;20693;-65
2022/06/05 01:47:40;;;;;;;0.70;0.70;;;;;;;;;;4561114;28;20040;-65
2022/06/05 01:49:56;;;;;;;0.60;0.60;;;;;;;;;;4561096;28;20547;-65
2022/06/05 01:52:37;;;;;;;0.80;0.80;;;;;;;;;;4560987;27;20654;-65
2022/06/05 01:54:58;;;;;;;0.80;0.73;;;;;;;;;;4550900;28;20049;-66
2022/06/05 01:57:10;;;;;;;0.85;0.70;;;;;;;;;;4559929;28;21124;-65
2022/06/05 01:59:36;;;;;;;0.90;0.70;;;;;;;;;;4563436;28;20105;-65
2022/06/05 02:01:51;;;;;;;0.70;0.70;;;;;;;;;;4560754;27;20036;-65
2022/06/05 02:04:22;;;;;;;0.80;0.80;;;;;;;;;;4558420;28;21027;-65
2022/06/05 02:06:46;;;;;;;1.00;0.80;;;;;;;;;;4560695;28;20131;-65
2022/06/05 02:09:04;;;;;;;0.70;0.70;;;;;;;;;;4553383;28;20044;-65
2022/06/05 02:11:26;;;;;;;0.85;0.70;;;;;;;;;;4570136;28;21115;-65
2022/06/05 02:13:36;;;;;;;0.63;0.63;;;;;;;;;;4565898;28;20031;-65
2022/06/05 02:15:48;;;;;;;0.70;0.70;;;;;;;;;;4561447;28;20036;-64
2022/06/05 02:17:59;;;;;;;1.23;0.68;;;;;;;;;;4563785;28;20083;-65
2022/06/05 02:20:10;;;;;;;0.70;0.70;;;;;;;;;;4562039;28;20162;-65
2022/06/05 02:22:24;;;;;;;1.00;0.80;;;;;;;;;;4566654;28;20024;-65
2022/06/05 02:24:35;;;;;;;0.75;0.75;;;;;;;;;;4548465;28;20043;-65
2022/06/05 02:26:45;;;;;;;0.75;0.70;;;;;;;;;;4563664;28;20085;-65
2022/06/05 02:28:56;;;;;;;0.80;0.80;;;;;;;;;;4565006;27;20032;-66
2022/06/05 02:31:16;;;;;;;0.70;0.70;;;;;;;;;;4563472;28;20032;-67
2022/06/05 02:33:39;;;;;;;0.60;0.60;;;;;;;;;;4563865;28;20040;-68
2022/06/05 02:36:01;;;;;;;0.70;0.70;;;;;;;;;;4564419;28;20691;-67
2022/06/05 02:38:38;;;;;;;0.70;0.70;;;;;;;;;;4566173;28;20090;-65
2022/06/05 02:41:03;;;;;;;1.40;0.80;;;;;;;;;;4563835;28;20403;-65
2022/06/05 02:43:25;;;;;;;0.68;0.68;;;;;;;;;;4563896;28;20064;-65
2022/06/05 02:45:51;;;;;;;0.60;0.60;;;;;;;;;;4566092;28;20140;-65
2022/06/05 02:48:06;;;;;;;0.60;0.60;;;;;;;;;;4562926;27;20076;-65
2022/06/05 02:50:43;;;;;;;0.90;0.80;;;;;;;;;;4564479;28;20123;-66
2022/06/05 02:53:00;;;;;;;0.60;0.60;;;;;;;;;;4564780;28;20645;-65
2022/06/05 02:55:17;;;;;;;0.70;0.70;;;;;;;;;;4565555;28;20148;-65
2022/06/05 02:57:27;;;;;;;;;;;;;;;;;;4563846;28;20971;-65
2022/06/05 02:59:38;;;;;;;0.80;0.70;;;;;;;;;;4563438;28;19917;-65
2022/06/05 03:04:17;;;;;;;0.73;0.70;;;;;;;;;;4564626;28;20634;-65
2022/06/05 03:06:29;;;;;;;0.80;0.80;;;;;;;;;;4563220;28;20177;-65
2022/06/05 03:08:39;;;;;;;0.70;0.70;;;;;;;;;;4561674;28;20075;-65
2022/06/05 03:10:50;;;;;;;0.65;0.65;;;;;;;;;;4565515;28;20113;-65
2022/06/05 03:13:04;;;;;;;0.82;0.75;;;;;;;;;;4563560;27;20045;-65
2022/06/05 03:15:16;;;;;;;1.00;0.90;;;;;;;;;;4564501;28;20048;-65
2022/06/05 03:17:26;;;;;;;0.70;0.65;;;;;;;;;;4555501;28;20043;-65
2022/06/05 03:19:36;;;;;;;0.75;0.75;;;;;;;;;;4564685;28;20102;-66
2022/06/05 03:21:47;;;;;;;0.98;0.80;;;;;;;;;;4563148;27;20063;-65
2022/06/05 03:23:57;;;;;;;0.65;0.65;;;;;;;;;;4562591;27;20044;-65
2022/06/05 03:26:09;;;;;;;0.70;0.70;;;;;;;;;;4562804;27;20025;-65
2022/06/05 03:28:20;;;;;;;0.60;0.60;;;;;;;;;;4564145;27;20036;-66
2022/06/05 03:30:30;;;;;;;0.60;0.60;;;;;;;;;;4570794;28;20759;-65
2022/06/05 03:32:41;;;;;;;0.70;0.70;;;;;;;;;;4562197;28;20040;-65
2022/06/05 03:34:53;;;;;;;0.68;0.68;;;;;;;;;;4562400;28;20032;-65
2022/06/05 03:37:04;;;;;;;0.73;0.73;;;;;;;;;;4559728;28;20064;-65
2022/06/05 03:39:14;;;;;;;0.73;0.73;;;;;;;;;;4563135;28;20039;-65
2022/06/05 03:41:24;;;;;;;0.80;0.80;;;;;;;;;;4561148;28;20492;-65
2022/06/05 03:43:36;;;;;;;0.80;0.75;;;;;;;;;;4562071;28;20103;-65
2022/06/05 03:45:47;;;;;;;0.77;0.77;;;;;;;;;;4562070;27;20111;-65
2022/06/05 03:47:57;;;;;;;0.80;0.80;;;;;;;;;;4568066;28;20048;-65
2022/06/05 03:50:09;;;;;;;0.68;0.60;;;;;;;;;;4562776;28;20051;-65
2022/06/05 03:52:20;;;;;;;0.73;0.73;;;;;;;;;;4562439;28;20044;-65
2022/06/05 03:54:31;;;;;;;0.70;0.70;;;;;;;;;;4563166;28;20040;-64
2022/06/05 03:56:42;;;;;;;3.45;3.13;;;;;;;;;;4552678;28;20143;-65
2022/06/05 03:58:53;;;;;;;3.10;2.90;;;;;;;;;;4555085;28;20491;-65
2022/06/05 04:01:07;;;;;;;3.80;3.38;;;;;;;;;;4548911;28;20045;-65
2022/06/05 04:03:19;;;;;;;4.28;3.55;;;;;;;;;;4561995;28;20043;-65
2022/06/05 04:05:29;;;;;;;3.45;3.15;;;;;;;;;;4570877;28;20062;-65
2022/06/05 04:07:40;;;;;;;3.42;3.13;;;;;;;;;;4561340;27;20089;-65
2022/06/05 04:09:51;;;;;;;3.53;3.22;;;;;;;;;;4561446;28;20027;-65
2022/06/05 04:12:01;;;;;;;3.65;3.00;;;;;;;;;;4564580;28;22514;-65
2022/06/05 04:14:12;;;;;;;3.03;2.72;;;;;;;;;;4561462;28;20477;-64
2022/06/05 04:16:25;;;;;;;3.80;3.05;;;;;;;;;;4561849;28;20037;-65
2022/06/05 04:18:35;;;;;;;3.10;2.80;;;;;;;;;;4562509;28;20976;-65
2022/06/05 04:20:46;;;;;;;3.42;3.13;;;;;;;;;;4562819;27;20046;-65
2022/06/05 04:22:56;;;;;;;3.30;3.00;;;;;;;;;;4566516;27;20040;-65
2022/06/05 04:25:09;;;;;;;3.20;2.90;;;;;;;;;;4561665;27;20377;-65
2022/06/05 04:27:19;;;;;;;4.47;3.15;;;;;;;;;;4541633;28;20045;-65
2022/06/05 04:29:32;;;;;;;3.10;2.80;;;;;;;;;;4561503;28;20033;-65
2022/06/05 04:31:45;;;;;;;3.13;2.67;;;;;;;;;;4563596;27;20147;-65
2022/06/05 04:33:57;;;;;;;2.85;2.65;;;;;;;;;;4564038;28;20832;-65
2022/06/05 04:36:08;;;;;;;3.20;2.90;;;;;;;;;;4570675;28;20012;-65
2022/06/05 04:38:18;;;;;;;3.20;2.90;;;;;;;;;;4562554;28;20020;-65
2022/06/05 04:40:28;;;;;;;2.78;2.53;;;;;;;;;;4561539;28;20033;-65
2022/06/05 04:42:39;;;;;;;2.97;2.75;;;;;;;;;;4562750;28;20542;-65
2022/06/05 04:44:49;;;;;;;3.20;2.90;;;;;;;;;;4561360;27;20480;-65
2022/06/05 04:47:00;;;;;;;3.17;2.85;;;;;;;;;;4562034;28;20047;-65
2022/06/05 04:49:13;;;;;;;3.35;3.00;;;;;;;;;;4562083;28;20036;-65
2022/06/05 04:51:23;;;;;;;3.20;2.90;;;;;;;;;;4562582;28;20035;-65
2022/06/05 04:53:34;;;;;;;3.35;2.78;;;;;;;;;;4562902;28;20099;-65
2022/06/05 04:55:45;;;;;;;3.20;2.90;;;;;;;;;;4561545;28;20024;-65
2022/06/05 04:57:56;;;;;;;3.20;2.88;;;;;;;;;;4563482;27;20101;-65
2022/06/05 05:00:07;;;;;;;3.33;3.00;;;;;;;;;;4570312;28;20322;-65
2022/06/05 05:02:18;;;;;;;3.00;2.70;;;;;;;;;;4561800;28;20037;-65
2022/06/05 05:04:28;;;;;;;3.13;2.83;;;;;;;;;;4560258;28;20043;-66
2022/06/05 05:06:41;;;;;;;3.20;2.90;;;;;;;;;;4562068;28;20043;-65
2022/06/05 05:08:52;;;;;;;2.83;2.63;;;;;;;;;;4564456;28;20048;-66
2022/06/05 05:11:02;;;;;;;3.28;2.90;;;;;;;;;;4570539;28;20025;-65
2022/06/05 05:13:14;;;;;;;2.92;2.72;;;;;;;;;;4571017;28;20032;-65
2022/06/05 05:15:24;;;;;;;2.88;2.67;;;;;;;;;;4561268;28;20799;-65
2022/06/05 05:17:34;;;;;;;2.83;2.63;;;;;;;;;;4560620;28;20040;-65
2022/06/05 05:19:45;;;;;;;3.10;2.80;;;;;;;;;;4561355;28;20088;-66
2022/06/05 05:21:55;;;;;;;3.13;2.83;;;;;;;;;;4561962;28;20020;-65
2022/06/05 05:24:07;;;;;;;2.75;2.55;;;;;;;;;;4563413;28;20070;-65
2022/06/05 05:26:29;;;;;;;3.13;2.83;;;;;;;;;;4560637;28;20043;-65
2022/06/05 05:28:40;;;;;;;3.28;2.95;;;;;;;;;;4560355;28;20040;-65
2022/06/05 05:30:51;;;;;;;2.47;2.28;;;;;;;;;;4561624;28;20032;-65
2022/06/05 05:33:01;;;;;;;2.70;2.50;;;;;;;;;;4564158;28;20033;-66
2022/06/05 05:35:12;;;;;;;2.58;2.38;;;;;;;;;;4563358;28;20260;-65
2022/06/05 05:37:22;;;;;;;3.08;2.80;;;;;;;;;;4561963;28;20546;-65
2022/06/05 05:42:05;;;;;;;3.30;3.00;;;;;;;;;;4562582;27;20099;-65
2022/06/05 05:44:16;;;;;;;3.10;2.80;;;;;;;;;;4561238;28;20036;-67
2022/06/05 05:46:26;;;;;;;2.95;2.70;;;;;;;;;;4542141;28;20114;-65
2022/06/05 05:48:38;;;;;;;3.17;2.88;;;;;;;;;;4566178;28;20037;-65
2022/06/05 05:50:48;;;;;;;3.25;2.90;;;;;;;;;;4573847;28;20615;-65
2022/06/05 05:52:59;;;;;;;3.00;2.70;;;;;;;;;;4565411;27;20074;-65
2022/06/05 05:55:15;;;;;;;3.20;2.90;;;;;;;;;;4565317;27;20039;-65
2022/06/05 05:57:25;;;;;;;3.78;3.10;;;;;;;;;;4556104;28;20135;-65
2022/06/05 05:59:36;;;;;;;3.33;3.03;;;;;;;;;;4565095;28;20028;-65
2022/06/05 06:01:47;;;;;;;3.13;2.83;;;;;;;;;;4565360;28;20036;-65
2022/06/05 06:03:58;;;;;;;3.00;2.80;;;;;;;;;;4572257;28;20032;-66
2022/06/05 06:06:08;;;;;;;3.20;2.90;;;;;;;;;;4573466;28;20024;-66
2022/06/05 06:08:19;;;;;;;3.55;3.10;;;;;;;;;;4532774;28;20695;-66
2022/06/05 06:10:29;;;;;;;3.30;3.00;;;;;;;;;;4564391;28;20766;-67
2022/06/05 06:12:41;;;;;;;3.20;2.90;;;;;;;;;;4568219;28;20415;-66
2022/06/05 06:14:52;;;;;;;3.10;2.58;;;;;;;;;;4564568;27;20032;-66
2022/06/05 06:17:03;;;;;;;2.85;2.53;;;;;;;;;;4548664;28;20041;-66
2022/06/05 06:19:13;;;;;;;2.70;2.50;;;;;;;;;;4564582;28;21084;-67
2022/06/05 06:21:24;;;;;;;2.63;2.42;;;;;;;;;;4564372;28;20042;-64
2022/06/05 06:23:35;;;;;;;2.97;2.67;;;;;;;;;;4563004;28;20480;-64
2022/06/05 06:25:45;;;;;;;2.58;2.38;;;;;;;;;;4562936;28;20032;-64
2022/06/05 06:27:56;;;;;;;3.08;2.40;;;;;;;;;;4564433;27;20114;-64
2022/06/05 06:30:07;;;;;;;2.40;2.20;;;;;;;;;;4565082;27;20040;-63
2022/06/05 06:32:18;;;;;;;3.03;2.50;;;;;;;;;;4567050;28;20044;-63
2022/06/05 06:34:28;;;;;;;3.58;3.28;;;;;;;;;;4564511;28;20036;-63
2022/06/05 06:36:39;;;;;;;4.05;3.28;;;;;;;;;;4562472;28;20791;-64
2022/06/05 06:38:49;;;;;;;3.63;3.33;;;;;;;;;;4563430;28;20032;-64
2022/06/05 06:41:05;;;;;;;3.25;2.85;;;;;;;;;;4569233;27;20138;-65
2022/06/05 06:43:16;;;;;;;3.67;3.38;;;;;;;;;;4564951;28;20037;-65
2022/06/05 06:45:27;;;;;;;3.30;3.00;;;;;;;;;;4564731;28;20599;-65
2022/06/05 06:47:37;;;;;;;3.47;3.17;;;;;;;;;;4564975;28;20040;-66
2022/06/05 06:49:48;;;;;;;3.78;3.47;;;;;;;;;;4565832;27;20068;-65
2022/06/05 06:51:58;;;;;;;3.78;3.47;;;;;;;;;;4563545;28;20106;-65
2022/06/05 06:54:08;;;;;;;4.07;3.67;;;;;;;;;;4565872;28;26692;-65
2022/06/05 06:56:23;;;;;;;4.30;3.92;;;;;;;;;;4565645;27;20042;-65
2022/06/05 06:58:34;;;;;;;3.30;3.03;;;;;;;;;;4562331;28;20029;-65
2022/06/05 07:00:45;;;;;;;3.58;3.28;;;;;;;;;;4564161;28;20040;-65
2022/06/05 07:02:55;;;;;;;4.18;3.75;;;;;;;;;;4563490;28;20023;-66
2022/06/05 07:05:06;;;;;;;4.05;3.55;;;;;;;;;;4562802;28;20036;-65
2022/06/05 07:07:17;;;;;;;4.00;3.60;;;;;;;;;;4564449;28;20043;-65
2022/06/05 07:09:27;;;;;;;4.00;3.70;;;;;;;;;;4565339;28;20488;-66
2022/06/05 07:11:38;;;;;;;4.15;3.75;;;;;;;;;;4566697;28;20695;-66
2022/06/05 07:13:49;;;;;;;4.10;3.70;;;;;;;;;;4563231;27;20040;-65
2022/06/05 07:16:00;;;;;;;4.30;3.90;;;;;;;;;;4562740;28;20544;-66
2022/06/05 07:18:10;;;;;;;4.10;3.70;;;;;;;;;;4561700;28;20036;-66
2022/06/05 07:20:21;;;;;;;3.80;3.50;;;;;;;;;;4556198;28;20040;-65
2022/06/05 07:22:31;;;;;;;3.97;3.67;;;;;;;;;;4562433;28;20586;-65
2022/06/05 07:24:42;;;;;;;4.28;3.88;;;;;;;;;;4563972;27;20025;-65
2022/06/05 07:26:54;;;;;;;4.35;3.95;;;;;;;;;;4562865;28;20032;-66
2022/06/05 07:29:04;;;;;;;4.57;4.13;;;;;;;;;;4563506;28;20032;-65
2022/06/05 07:31:16;;;;;;;4.10;3.70;;;;;;;;;;4563018;28;20068;-66
2022/06/05 07:33:29;;;;;;;4.15;3.75;;;;;;;;;;4562446;28;20595;-66
2022/06/05 07:35:41;;;;;;;4.50;4.10;;;;;;;;;;4562163;28;20052;-66
2022/06/05 07:37:52;;;;;;;4.63;4.22;;;;;;;;;;4579356;27;20669;-66
2022/06/05 07:40:03;;;;;;;4.60;4.20;;;;;;;;;;4565677;27;20134;-66
2022/06/05 07:42:13;;;;;;;4.80;4.40;;;;;;;;;;4562513;28;20098;-66
2022/06/05 07:44:25;;;;;;;4.28;3.88;;;;;;;;;;4571586;28;20115;-66
2022/06/05 07:46:36;;;;;;;4.82;4.15;;;;;;;;;;4562640;28;20037;-66
2022/06/05 07:48:47;;;;;;;4.63;4.15;;;;;;;;;;4561787;28;20036;-65
2022/06/05 07:56:04;;;;;;;4.63;4.18;;;;;;;;;;4563421;28;20308;-66
2022/06/05 07:58:14;;;;;;;4.32;3.92;;;;;;;;;;4563480;27;20078;-65
2022/06/05 08:00:25;;;;;;;4.50;4.10;;;;;;;;;;4564539;28;20556;-66
2022/06/05 08:02:36;;;;;;;4.40;4.00;;;;;;;;;;4562885;28;20032;-66
2022/06/05 08:04:48;;;;;;;4.35;3.95;;;;;;;;;;4578438;27;20584;-66
2022/06/05 08:06:59;;;;;;;5.18;4.68;;;;;;;;;;4563186;28;20051;-66
2022/06/05 08:09:10;;;;;;;4.65;4.25;;;;;;;;;;4554559;28;20041;-66
2022/06/05 08:11:21;;;;;;;4.80;4.40;;;;;;;;;;4563709;28;20036;-65
2022/06/05 08:13:31;;;;;;;4.82;4.28;;;;;;;;;;4562605;27;20040;-65
2022/06/05 08:15:45;;;;;;;4.60;4.20;;;;;;;;;;4560982;28;20033;-65
2022/06/05 08:17:55;;;;;;;4.80;4.20;;;;;;;;;;4570687;28;20036;-66
2022/06/05 08:20:07;;;;;;;5.00;4.60;;;;;;;;;;4562540;28;20024;-67
2022/06/05 08:22:21;;;;;;;4.68;4.28;;;;;;;;;;4571113;28;21274;-66
2022/06/05 08:24:31;;;;;;;4.72;4.32;;;;;;;;;;4562306;28;20694;-66
2022/06/05 08:26:41;;;;;;;4.78;4.38;;;;;;;;;;4570744;28;20101;-66
2022/06/05 08:28:52;;;;;;;5.03;4.60;;;;;;;;;;4563628;27;20097;-65
2022/06/05 08:31:03;;;;;;;5.15;4.65;;;;;;;;;;4561920;28;20020;-66
2022/06/05 08:33:13;;;;;;;5.10;4.60;;;;;;;;;;4563017;28;20140;-65
2022/06/05 08:35:23;;;;;;;5.20;4.70;;;;;;;;;;4563119;28;20063;-65
2022/06/05 08:43:07;;;;;;;5.45;4.90;;;;;;;;;;4560917;28;20939;-65
2022/06/05 08:45:24;;;;;;;5.20;4.70;;;;;;;;;;4538785;28;20040;-65
2022/06/05 08:47:42;;;;;;;5.45;4.95;;;;;;;;;;4560267;28;20035;-65
2022/06/05 08:50:17;;;;;;;5.35;4.85;;;;;;;;;;4561785;27;20126;-66
2022/06/05 08:52:44;;;;;;;5.40;5.00;;;;;;;;;;4560748;28;20555;-65
2022/06/05 08:55:15;;;;;;;5.50;5.00;;;;;;;;;;4562311;28;21494;-65
2022/06/05 08:57:40;;;;;;;5.82;5.32;;;;;;;;;;4562482;28;20814;-65
2022/06/05 09:00:25;;;;;;;5.32;4.82;;;;;;;;;;4560689;28;20035;-65
2022/06/05 09:02:35;;;;;;;5.55;5.05;;;;;;;;;;4546511;28;20091;-65
2022/06/05 09:05:08;;;;;;;5.43;4.93;;;;;;;;;;4564088;27;20127;-65
2022/06/05 09:07:26;;;;;;;5.20;4.70;;;;;;;;;;4576731;27;20040;-66
2022/06/05 09:09:51;;;;;;;5.65;5.13;;;;;;;;;;4562962;28;20161;-65
2022/06/05 09:12:07;;;;;;;5.30;4.80;;;;;;;;;;4570690;28;20028;-65
2022/06/05 09:14:28;;;;;;;4.70;4.30;;;;;;;;;;4563592;28;20117;-66
2022/06/05 09:16:44;;;;;;;5.50;5.00;;;;;;;;;;4563396;28;20830;-66
2022/06/05 09:18:55;;;;;;;5.25;4.75;;;;;;;;;;4552999;28;20048;-65
2022/06/05 09:21:24;;;;;;;4.85;4.40;;;;;;;;;;4560592;28;20155;-66
2022/06/05 09:23:40;;;;;;;5.38;4.88;;;;;;;;;;4564136;28;20024;-65
2022/06/05 09:26:08;;;;;;;5.32;4.82;;;;;;;;;;4561752;28;20024;-66
2022/06/05 09:28:38;;;;;;;5.15;4.65;;;;;;;;;;4563895;28;20091;-65
2022/06/05 09:31:08;;;;;;;5.18;4.68;;;;;;;;;;4562413;28;20117;-65
2022/06/05 09:33:23;;;;;;;5.10;4.68;;;;;;;;;;4539575;27;20662;-65
2022/06/05 09:35:37;;;;;;;4.95;4.55;;;;;;;;;;4563892;28;20028;-65
2022/06/05 09:37:58;;;;;;;4.65;4.25;;;;;;;;;;4562702;28;20120;-66
2022/06/05 09:40:18;;;;;;;5.10;4.70;;;;;;;;;;4561086;28;20579;-65
2022/06/05 09:42:47;;;;;;;4.78;4.38;;;;;;;;;;4547428;28;20029;-65
2022/06/05 09:45:04;;;;;;;5.10;4.60;;;;;;;;;;4560663;28;20635;-65
2022/06/05 09:47:23;;;;;;;5.22;4.72;;;;;;;;;;4560778;28;20064;-65
2022/06/05 09:49:39;;;;;;;4.95;4.45;;;;;;;;;;4561456;27;20032;-65
2022/06/05 09:51:49;;;;;;;5.43;4.93;;;;;;;;;;4547686;28;20040;-65
2022/06/05 09:54:19;;;;;;;5.20;4.65;;;;;;;;;;4559928;27;20036;-64
2022/06/05 09:59:41;;;;;;;5.03;4.63;;;;;;;;;;4569777;28;20096;-65
2022/06/05 10:01:55;;;;;;;4.80;4.40;;;;;;;;;;4563822;28;20876;-65
2022/06/05 10:04:06;;;;;;;5.20;4.70;;;;;;;;;;4567526;28;20058;-65
2022/06/05 10:06:35;;;;;;;5.00;4.50;;;;;;;;;;4560368;28;20051;-65
2022/06/05 10:08:49;;;;;;;5.35;4.85;;;;;;;;;;4569319;28;20036;-65
2022/06/05 10:11:01;;;;;;;5.40;4.90;;;;;;;;;;4560101;28;20143;-65
2022/06/05 10:13:46;;;;;;;4.95;4.55;;;;;;;;;;4562498;28;20587;-66
2022/06/05 10:16:27;;;;;;;5.20;4.80;;;;;;;;;;4557992;28;20079;-69
2022/06/05 10:19:01;;;;;;;4.75;4.35;;;;;;;;;;4562573;28;20087;-67
2022/06/05 10:21:12;;;;;;;5.38;4.80;;;;;;;;;;4560000;28;20044;-66
2022/06/05 10:23:25;;;;;;;5.43;4.90;;;;;;;;;;4558373;28;20452;-66
2022/06/05 10:25:47;;;;;;;5.40;4.90;;;;;;;;;;4559071;28;20068;-66
2022/06/05 10:28:04;;;;;;;5.50;5.00;;;;;;;;;;4560799;28;20036;-66
2022/06/05 10:30:17;;;;;;;5.30;4.90;;;;;;;;;;4560450;28;20028;-65
2022/06/05 10:32:54;;;;;;;5.97;5.38;;;;;;;;;;4577073;27;20036;-65
2022/06/05 10:35:12;;;;;;;5.82;4.93;;;;;;;;;;4567878;28;20029;-66
2022/06/05 10:37:25;;;;;;;5.55;5.07;;;;;;;;;;4561259;28;20029;-66
2022/06/05 10:40:14;;;;;;;5.68;5.18;;;;;;;;;;4570272;28;20704;-66
2022/06/05 10:42:30;;;;;;;5.78;5.28;;;;;;;;;;4561293;28;20036;-65
2022/06/05 10:44:58;;;;;;;6.10;5.60;;;;;;;;;;4559984;28;20044;-65
2022/06/05 10:47:14;;;;;;;5.47;4.97;;;;;;;;;;4564844;28;20024;-65
2022/06/05 10:49:49;;;;;;;5.63;5.13;;;;;;;;;;4563316;28;20033;-65
2022/06/05 10:52:30;;;;;;;5.93;5.30;;;;;;;;;;4561349;28;20565;-65
2022/06/05 10:54:47;;;;;;;5.85;5.35;;;;;;;;;;4562542;28;20036;-65
2022/06/05 10:57:02;;;;;;;5.93;5.43;;;;;;;;;;4563053;28;20637;-64
2022/06/05 10:59:18;;;;;;;5.88;5.32;;;;;;;;;;4561358;28;20169;-65
2022/06/05 11:01:43;;;;;;;5.60;5.10;;;;;;;;;;4565099;28;20112;-65
2022/06/05 11:04:24;;;;;;;6.00;5.40;;;;;;;;;;4567025;28;20275;-65
2022/06/05 11:06:42;;;;;;;6.13;5.63;;;;;;;;;;4565465;28;20063;-66
2022/06/05 11:08:58;;;;;;;5.88;5.38;;;;;;;;;;4565286;28;20032;-65
2022/06/05 11:14:15;;;;;;;6.20;5.60;;;;;;;;;;4562636;27;20032;-66
2022/06/05 11:16:38;;;;;;;5.97;5.47;;;;;;;;;;4553445;28;20157;-66
2022/06/05 11:19:02;;;;;;;6.50;5.90;;;;;;;;;;4562574;28;20037;-66
2022/06/05 11:21:16;;;;;;;6.18;5.57;;;;;;;;;;4561287;28;20032;-67
2022/06/05 11:23:33;;;;;;;5.78;5.28;;;;;;;;;;4563715;28;20028;-66
2022/06/05 11:25:47;;;;;;;6.05;5.47;;;;;;;;;;4563987;28;20036;-66
2022/06/05 11:28:11;;;;;;;6.10;5.57;;;;;;;;;;4562038;27;20070;-67
2022/06/05 11:30:54;;;;;;;5.88;5.38;;;;;;;;;;4562871;28;20109;-67
2022/06/05 11:33:18;;;;;;;6.85;6.22;;;;;;;;;;4563615;28;20041;-67
2022/06/05 11:35:36;;;;;;;6.25;5.65;;;;;;;;;;4564173;28;20093;-65
2022/06/05 11:37:53;;;;;;;6.03;5.50;;;;;;;;;;4559846;28;20040;-65
2022/06/05 11:40:28;;;;;;;5.80;5.30;;;;;;;;;;4577082;27;20028;-65
2022/06/05 11:42:58;;;;;;;6.45;5.45;;;;;;;;;;4559924;28;20118;-64
2022/06/05 11:45:17;;;;;;;6.22;5.72;;;;;;;;;;4562421;28;20025;-64
2022/06/05 11:47:57;;;;;;;6.25;5.65;;;;;;;;;;4562425;28;20036;-64
2022/06/05 11:50:10;;;;;;;6.00;5.50;;;;;;;;;;4562694;28;20032;-64
2022/06/05 11:52:33;;;;;;;6.55;5.85;;;;;;;;;;4560623;28;20147;-64
2022/06/05 11:54:58;;;;;;;5.68;5.18;;;;;;;;;;4562506;28;20078;-65
2022/06/05 11:57:23;;;;;;;6.45;5.88;;;;;;;;;;4564536;28;20043;-64
2022/06/05 11:59:48;;;;;;;6.50;5.90;;;;;;;;;;4564168;28;20693;-64
2022/06/05 12:02:08;;;;;;;6.63;6.03;;;;;;;;;;4561305;28;20118;-64
2022/06/05 12:04:27;;;;;;;6.43;5.82;;;;;;;;;;4561934;28;20643;-62
2022/06/05 12:06:42;;;;;;;6.30;5.80;;;;;;;;;;4562580;28;20127;-65
2022/06/05 12:09:01;;;;;;;6.20;5.70;;;;;;;;;;4559952;28;20040;-65
2022/06/05 12:11:37;;;;;;;6.75;6.10;;;;;;;;;;4562252;28;20040;-61
2022/06/05 12:14:09;;;;;;;6.90;6.30;;;;;;;;;;4561559;28;20159;-61
2022/06/05 12:16:27;;;;;;;7.00;6.40;;;;;;;;;;4561641;28;20032;-60
2022/06/05 12:18:48;;;;;;;6.72;6.10;;;;;;;;;;4563776;27;20082;-61
2022/06/05 12:21:29;;;;;;;6.85;6.15;;;;;;;;;;4562816;28;20028;-59
2022/06/05 12:23:57;;;;;;;7.68;6.88;;;;;;;;;;4548152;28;20093;-61
2022/06/05 12:26:34;;;;;;;6.93;6.32;;;;;;;;;;4560725;28;20099;-61
2022/06/05 12:28:52;;;;;;;7.35;6.65;;;;;;;;;;4558765;28;20056;-61
2022/06/05 12:31:13;;;;;;;6.80;6.20;;;;;;;;;;4560128;28;20130;-62
2022/06/05 12:33:37;;;;;;;6.40;5.90;;;;;;;;;;4560208;28;20040;-61
2022/06/05 12:35:53;;;;;;;6.55;5.95;;;;;;;;;;4553696;28;21546;-63
2022/06/05 12:38:23;;;;;;;7.03;6.33;;;;;;;;;;4561650;28;20035;-61
2022/06/05 12:40:37;;;;;;;6.35;5.72;;;;;;;;;;4549598;28;20040;-62
2022/06/05 12:42:57;;;;;;;6.40;5.80;;;;;;;;;;4553282;28;20128;-63
2022/06/05 12:45:24;;;;;;;6.70;6.10;;;;;;;;;;4563025;28;20129;-63
2022/06/05 12:47:57;;;;;;;6.93;6.32;;;;;;;;;;4563532;28;20040;-63
2022/06/05 12:50:48;;;;;;;6.55;5.95;;;;;;;;;;4561055;27;20802;-62
2022/06/05 12:53:08;;;;;;;6.90;6.20;;;;;;;;;;4560829;28;20052;-62
2022/06/05 12:55:24;;;;;;;6.45;5.85;;;;;;;;;;4561729;28;20039;-63
2022/06/05 12:57:39;;;;;;;6.50;5.90;;;;;;;;;;4570307;27;20155;-62
2022/06/05 12:59:59;;;;;;;7.10;6.40;;;;;;;;;;4562775;28;20097;-63
2022/06/05 13:02:23;;;;;;;6.80;6.13;;;;;;;;;;4559864;28;20021;-62
2022/06/05 13:04:47;;;;;;;6.35;5.85;;;;;;;;;;4562597;28;20037;-64
2022/06/05 13:07:10;;;;;;;6.05;5.50;;;;;;;;;;4564736;28;21444;-63
2022/06/05 13:09:30;;;;;;;6.28;5.68;;;;;;;;;;4558688;28;20113;-63
2022/06/05 13:11:46;;;;;;;6.72;6.13;;;;;;;;;;4562353;28;21194;-64
2022/06/05 13:14:12;;;;;;;6.45;5.85;;;;;;;;;;4561191;28;20036;-63
2022/06/05 13:16:38;;;;;;;6.63;6.03;;;;;;;;;;4577371;27;20036;-63
2022/06/05 13:19:04;;;;;;;6.47;5.88;;;;;;;;;;4563442;28;20651;-63
2022/06/05 13:21:19;;;;;;;6.20;5.70;;;;;;;;;;4561897;28;20041;-66
2022/06/05 13:23:54;;;;;;;6.50;5.90;;;;;;;;;;4547621;28;20039;-65
2022/06/05 13:26:15;;;;;;;6.50;5.90;;;;;;;;;;4559425;28;20036;-64
2022/06/05 13:28:51;;;;;;;6.65;6.05;;;;;;;;;;4563836;28;20698;-63
2022/06/05 13:31:06;;;;;;;6.70;6.10;;;;;;;;;;4558375;28;20032;-62
2022/06/05 13:33:29;;;;;;;6.30;5.70;;;;;;;;;;4562347;28;20051;-65
2022/06/05 13:35:56;;;;;;;6.38;5.80;;;;;;;;;;4560771;27;20132;-62
2022/06/05 13:38:39;;;;;;;6.15;5.65;;;;;;;;;;4561468;28;21602;-64
2022/06/05 13:41:15;;;;;;;6.15;5.55;;;;;;;;;;4562520;28;20714;-63
2022/06/05 13:43:37;;;;;;;6.47;5.78;;;;;;;;;;4560822;28;20071;-61
2022/06/05 13:45:54;;;;;;;6.55;5.95;;;;;;;;;;4561827;28;20793;-64
2022/06/05 13:48:19;;;;;;;6.20;5.60;;;;;;;;;;4562000;28;20084;-63
2022/06/05 13:50:38;;;;;;;6.88;6.22;;;;;;;;;;4562388;28;20068;-63
2022/06/05 13:52:59;;;;;;;6.47;5.88;;;;;;;;;;4559575;28;20032;-63
2022/06/05 13:55:34;;;;;;;6.28;5.68;;;;;;;;;;4560070;28;20042;-63
2022/06/05 13:57:59;;;;;;;6.18;5.68;;;;;;;;;;4561193;28;21210;-62
2022/06/05 14:00:32;;;;;;;6.50;6.00;;;;;;;;;;4558882;28;20081;-62
2022/06/05 14:02:44;;;;;;;6.15;5.60;;;;;;;;;;4569342;28;20154;-60
2022/06/05 14:05:04;;;;;;;6.15;5.65;;;;;;;;;;4560518;28;20035;-58